sensor_id;sensor_type;location;lat;lon;timestamp;P1;durP1;ratioP1;P2;durP2;ratioP2
18013;SDS011;9132;47.946;10.394;2024-02-04T00:00:36;1.60;;;1.50;;
18013;SDS011;9132;47.946;10.394;2024-02-04T00:03:03;2.40;;;2.10;;
18013;SDS011;9132;47.946;10.394;2024-02-04T00:05:31;2.07;;;1.77;;
18013;SDS011;9132;47.946;10.394;2024-02-04T00:07:57;2.13;;;1.93;;
18013;SDS011;9132;47.946;10.394;2024-02-04T00:10:24;2.67;;;1.83;;
18013;SDS011;9132;47.946;10.394;2024-02-04T00:12:51;1.93;;;1.73;;
18013;SDS011;9132;47.946;10.394;2024-02-04T00:15:18;3.00;;;1.57;;
18013;SDS011;9132;47.946;10.394;2024-02-04T00:17:45;1.67;;;1.53;;
18013;SDS011;9132;47.946;10.394;2024-02-04T00:20:11;1.87;;;1.60;;
18013;SDS011;9132;47.946;10.394;2024-02-04T00:22:39;1.97;;;1.40;;
18013;SDS011;9132;47.946;10.394;2024-02-04T00:25:06;2.27;;;1.60;;
18013;SDS011;9132;47.946;10.394;2024-02-04T00:27:40;2.73;;;1.90;;
18013;SDS011;9132;47.946;10.394;2024-02-04T00:30:07;2.07;;;1.60;;
18013;SDS011;9132;47.946;10.394;2024-02-04T00:32:34;2.40;;;1.80;;
18013;SDS011;9132;47.946;10.394;2024-02-04T00:35:00;2.40;;;1.73;;
18013;SDS011;9132;47.946;10.394;2024-02-04T00:37:27;2.00;;;1.40;;
18013;SDS011;9132;47.946;10.394;2024-02-04T00:39:55;1.93;;;1.70;;
18013;SDS011;9132;47.946;10.394;2024-02-04T00:42:22;3.00;;;2.13;;
18013;SDS011;9132;47.946;10.394;2024-02-04T00:44:48;3.03;;;2.50;;
18013;SDS011;9132;47.946;10.394;2024-02-04T00:47:15;2.23;;;2.03;;
18013;SDS011;9132;47.946;10.394;2024-02-04T00:49:42;4.57;;;3.07;;
18013;SDS011;9132;47.946;10.394;2024-02-04T00:52:08;4.90;;;3.33;;
18013;SDS011;9132;47.946;10.394;2024-02-04T00:54:35;5.57;;;3.60;;
18013;SDS011;9132;47.946;10.394;2024-02-04T00:57:03;5.23;;;4.17;;
18013;SDS011;9132;47.946;10.394;2024-02-04T00:59:30;5.93;;;4.27;;
18013;SDS011;9132;47.946;10.394;2024-02-04T01:01:56;4.60;;;4.10;;
18013;SDS011;9132;47.946;10.394;2024-02-04T01:04:23;4.97;;;4.07;;
18013;SDS011;9132;47.946;10.394;2024-02-04T01:06:50;5.17;;;4.40;;
18013;SDS011;9132;47.946;10.394;2024-02-04T01:09:16;7.03;;;4.70;;
18013;SDS011;9132;47.946;10.394;2024-02-04T01:11:43;5.93;;;4.57;;
18013;SDS011;9132;47.946;10.394;2024-02-04T01:14:11;6.23;;;4.93;;
18013;SDS011;9132;47.946;10.394;2024-02-04T01:16:38;5.67;;;3.97;;
18013;SDS011;9132;47.946;10.394;2024-02-04T01:19:04;5.97;;;4.63;;
18013;SDS011;9132;47.946;10.394;2024-02-04T01:21:31;7.33;;;4.83;;
18013;SDS011;9132;47.946;10.394;2024-02-04T01:23:57;5.50;;;4.77;;
18013;SDS011;9132;47.946;10.394;2024-02-04T01:26:24;5.07;;;4.27;;
18013;SDS011;9132;47.946;10.394;2024-02-04T01:28:50;5.70;;;5.07;;
18013;SDS011;9132;47.946;10.394;2024-02-04T01:31:18;8.60;;;4.40;;
18013;SDS011;9132;47.946;10.394;2024-02-04T01:33:45;4.70;;;3.90;;
18013;SDS011;9132;47.946;10.394;2024-02-04T01:36:12;4.67;;;3.70;;
18013;SDS011;9132;47.946;10.394;2024-02-04T01:38:38;3.57;;;2.90;;
18013;SDS011;9132;47.946;10.394;2024-02-04T01:41:05;4.10;;;2.80;;
18013;SDS011;9132;47.946;10.394;2024-02-04T01:43:31;3.10;;;2.80;;
18013;SDS011;9132;47.946;10.394;2024-02-04T01:45:58;2.80;;;2.30;;
18013;SDS011;9132;47.946;10.394;2024-02-04T01:48:26;2.40;;;2.17;;
18013;SDS011;9132;47.946;10.394;2024-02-04T01:50:53;3.03;;;2.57;;
18013;SDS011;9132;47.946;10.394;2024-02-04T01:53:23;5.30;;;2.50;;
18013;SDS011;9132;47.946;10.394;2024-02-04T01:55:52;2.90;;;2.57;;
18013;SDS011;9132;47.946;10.394;2024-02-04T01:58:20;4.17;;;2.70;;
18013;SDS011;9132;47.946;10.394;2024-02-04T02:00:46;3.20;;;2.87;;
18013;SDS011;9132;47.946;10.394;2024-02-04T02:03:15;4.37;;;2.40;;
18013;SDS011;9132;47.946;10.394;2024-02-04T02:05:43;3.40;;;2.90;;
18013;SDS011;9132;47.946;10.394;2024-02-04T02:08:11;3.90;;;3.10;;
18013;SDS011;9132;47.946;10.394;2024-02-04T02:10:38;4.13;;;3.20;;
18013;SDS011;9132;47.946;10.394;2024-02-04T02:13:09;3.70;;;3.10;;
18013;SDS011;9132;47.946;10.394;2024-02-04T02:15:44;3.87;;;3.50;;
18013;SDS011;9132;47.946;10.394;2024-02-04T02:18:16;3.87;;;3.47;;
18013;SDS011;9132;47.946;10.394;2024-02-04T02:20:53;4.23;;;3.33;;
18013;SDS011;9132;47.946;10.394;2024-02-04T02:23:34;5.00;;;4.10;;
18013;SDS011;9132;47.946;10.394;2024-02-04T02:26:03;4.70;;;4.20;;
18013;SDS011;9132;47.946;10.394;2024-02-04T02:28:31;5.60;;;4.90;;
18013;SDS011;9132;47.946;10.394;2024-02-04T02:30:58;5.73;;;5.00;;
18013;SDS011;9132;47.946;10.394;2024-02-04T02:33:24;6.13;;;4.93;;
18013;SDS011;9132;47.946;10.394;2024-02-04T02:35:53;6.93;;;5.70;;
18013;SDS011;9132;47.946;10.394;2024-02-04T02:38:25;5.50;;;4.87;;
18013;SDS011;9132;47.946;10.394;2024-02-04T02:40:58;6.77;;;5.50;;
18013;SDS011;9132;47.946;10.394;2024-02-04T02:43:30;6.43;;;5.13;;
18013;SDS011;9132;47.946;10.394;2024-02-04T02:45:59;7.40;;;5.10;;
18013;SDS011;9132;47.946;10.394;2024-02-04T02:48:26;6.77;;;5.20;;
18013;SDS011;9132;47.946;10.394;2024-02-04T02:50:54;5.10;;;4.13;;
18013;SDS011;9132;47.946;10.394;2024-02-04T02:53:20;5.07;;;4.53;;
18013;SDS011;9132;47.946;10.394;2024-02-04T02:55:47;4.87;;;4.07;;
18013;SDS011;9132;47.946;10.394;2024-02-04T02:58:13;4.13;;;3.73;;
18013;SDS011;9132;47.946;10.394;2024-02-04T03:00:41;5.63;;;4.40;;
18013;SDS011;9132;47.946;10.394;2024-02-04T03:03:08;4.67;;;4.00;;
18013;SDS011;9132;47.946;10.394;2024-02-04T03:05:34;4.27;;;3.87;;
18013;SDS011;9132;47.946;10.394;2024-02-04T03:08:01;4.53;;;4.00;;
18013;SDS011;9132;47.946;10.394;2024-02-04T03:10:28;4.33;;;3.93;;
18013;SDS011;9132;47.946;10.394;2024-02-04T03:12:54;4.20;;;3.73;;
18013;SDS011;9132;47.946;10.394;2024-02-04T03:15:21;4.40;;;4.00;;
18013;SDS011;9132;47.946;10.394;2024-02-04T03:17:48;5.27;;;4.70;;
18013;SDS011;9132;47.946;10.394;2024-02-04T03:20:15;5.93;;;4.13;;
18013;SDS011;9132;47.946;10.394;2024-02-04T03:22:42;5.90;;;4.57;;
18013;SDS011;9132;47.946;10.394;2024-02-04T03:25:09;5.23;;;4.43;;
18013;SDS011;9132;47.946;10.394;2024-02-04T03:27:36;4.87;;;3.73;;
18013;SDS011;9132;47.946;10.394;2024-02-04T03:30:03;4.97;;;4.47;;
18013;SDS011;9132;47.946;10.394;2024-02-04T03:32:30;5.33;;;4.50;;
18013;SDS011;9132;47.946;10.394;2024-02-04T03:35:00;6.73;;;4.83;;
18013;SDS011;9132;47.946;10.394;2024-02-04T03:37:27;5.20;;;4.70;;
18013;SDS011;9132;47.946;10.394;2024-02-04T03:39:53;6.10;;;4.53;;
18013;SDS011;9132;47.946;10.394;2024-02-04T03:42:20;7.57;;;4.73;;
18013;SDS011;9132;47.946;10.394;2024-02-04T03:44:47;6.50;;;4.60;;
18013;SDS011;9132;47.946;10.394;2024-02-04T03:47:14;7.07;;;5.40;;
18013;SDS011;9132;47.946;10.394;2024-02-04T03:49:40;6.67;;;4.73;;
18013;SDS011;9132;47.946;10.394;2024-02-04T03:52:08;5.83;;;4.57;;
18013;SDS011;9132;47.946;10.394;2024-02-04T03:54:34;5.67;;;5.03;;
18013;SDS011;9132;47.946;10.394;2024-02-04T03:57:01;6.53;;;5.33;;
18013;SDS011;9132;47.946;10.394;2024-02-04T03:59:28;6.20;;;4.37;;
18013;SDS011;9132;47.946;10.394;2024-02-04T04:01:54;5.50;;;4.90;;
18013;SDS011;9132;47.946;10.394;2024-02-04T04:04:23;6.60;;;5.43;;
18013;SDS011;9132;47.946;10.394;2024-02-04T04:06:51;7.23;;;5.53;;
18013;SDS011;9132;47.946;10.394;2024-02-04T04:09:19;5.93;;;5.30;;
18013;SDS011;9132;47.946;10.394;2024-02-04T04:11:46;6.00;;;4.60;;
18013;SDS011;9132;47.946;10.394;2024-02-04T04:14:12;7.43;;;5.27;;
18013;SDS011;9132;47.946;10.394;2024-02-04T04:16:39;8.07;;;5.53;;
18013;SDS011;9132;47.946;10.394;2024-02-04T04:19:05;7.07;;;5.63;;
18013;SDS011;9132;47.946;10.394;2024-02-04T04:21:32;6.60;;;5.03;;
18013;SDS011;9132;47.946;10.394;2024-02-04T04:23:58;5.90;;;5.23;;
18013;SDS011;9132;47.946;10.394;2024-02-04T04:26:26;5.50;;;4.53;;
18013;SDS011;9132;47.946;10.394;2024-02-04T04:28:53;6.27;;;5.10;;
18013;SDS011;9132;47.946;10.394;2024-02-04T04:31:19;5.33;;;4.80;;
18013;SDS011;9132;47.946;10.394;2024-02-04T04:33:46;6.30;;;5.23;;
18013;SDS011;9132;47.946;10.394;2024-02-04T04:36:12;6.87;;;5.33;;
18013;SDS011;9132;47.946;10.394;2024-02-04T04:38:39;5.90;;;5.10;;
18013;SDS011;9132;47.946;10.394;2024-02-04T04:41:05;5.37;;;4.60;;
18013;SDS011;9132;47.946;10.394;2024-02-04T04:43:36;6.47;;;5.50;;
18013;SDS011;9132;47.946;10.394;2024-02-04T04:46:03;6.17;;;5.17;;
18013;SDS011;9132;47.946;10.394;2024-02-04T04:48:29;6.07;;;5.20;;
18013;SDS011;9132;47.946;10.394;2024-02-04T04:50:56;6.47;;;5.33;;
18013;SDS011;9132;47.946;10.394;2024-02-04T04:53:22;6.50;;;5.80;;
18013;SDS011;9132;47.946;10.394;2024-02-04T04:55:49;7.83;;;6.30;;
18013;SDS011;9132;47.946;10.394;2024-02-04T04:58:15;10.03;;;7.47;;
18013;SDS011;9132;47.946;10.394;2024-02-04T05:00:43;8.00;;;7.00;;
18013;SDS011;9132;47.946;10.394;2024-02-04T05:03:10;8.63;;;7.27;;
18013;SDS011;9132;47.946;10.394;2024-02-04T05:05:36;9.43;;;8.43;;
18013;SDS011;9132;47.946;10.394;2024-02-04T05:08:03;10.13;;;7.77;;
18013;SDS011;9132;47.946;10.394;2024-02-04T05:10:30;10.17;;;8.70;;
18013;SDS011;9132;47.946;10.394;2024-02-04T05:12:56;11.87;;;8.93;;
18013;SDS011;9132;47.946;10.394;2024-02-04T05:15:23;11.87;;;9.50;;
18013;SDS011;9132;47.946;10.394;2024-02-04T05:17:51;14.53;;;10.37;;
18013;SDS011;9132;47.946;10.394;2024-02-04T05:20:18;12.70;;;10.07;;
18013;SDS011;9132;47.946;10.394;2024-02-04T05:22:44;14.50;;;11.20;;
18013;SDS011;9132;47.946;10.394;2024-02-04T05:25:11;13.60;;;10.47;;
18013;SDS011;9132;47.946;10.394;2024-02-04T05:27:37;12.00;;;10.60;;
18013;SDS011;9132;47.946;10.394;2024-02-04T05:30:04;12.17;;;10.77;;
18013;SDS011;9132;47.946;10.394;2024-02-04T05:32:31;14.10;;;10.47;;
18013;SDS011;9132;47.946;10.394;2024-02-04T05:34:59;12.67;;;10.43;;
18013;SDS011;9132;47.946;10.394;2024-02-04T05:37:26;14.97;;;10.93;;
18013;SDS011;9132;47.946;10.394;2024-02-04T05:39:52;13.47;;;10.30;;
18013;SDS011;9132;47.946;10.394;2024-02-04T05:42:19;16.57;;;10.63;;
18013;SDS011;9132;47.946;10.394;2024-02-04T05:44:45;13.17;;;10.63;;
18013;SDS011;9132;47.946;10.394;2024-02-04T05:47:12;12.17;;;9.97;;
18013;SDS011;9132;47.946;10.394;2024-02-04T05:49:38;12.77;;;10.33;;
18013;SDS011;9132;47.946;10.394;2024-02-04T05:52:07;15.40;;;10.60;;
18013;SDS011;9132;47.946;10.394;2024-02-04T05:54:36;13.00;;;9.73;;
18013;SDS011;9132;47.946;10.394;2024-02-04T05:57:03;12.40;;;9.73;;
18013;SDS011;9132;47.946;10.394;2024-02-04T05:59:30;14.47;;;9.93;;
18013;SDS011;9132;47.946;10.394;2024-02-04T06:01:57;14.87;;;9.87;;
18013;SDS011;9132;47.946;10.394;2024-02-04T06:04:26;11.27;;;8.70;;
18013;SDS011;9132;47.946;10.394;2024-02-04T06:06:55;11.20;;;9.30;;
18013;SDS011;9132;47.946;10.394;2024-02-04T06:09:23;11.60;;;9.13;;
18013;SDS011;9132;47.946;10.394;2024-02-04T06:11:49;11.87;;;9.40;;
18013;SDS011;9132;47.946;10.394;2024-02-04T06:14:16;13.67;;;9.33;;
18013;SDS011;9132;47.946;10.394;2024-02-04T06:16:43;14.50;;;10.10;;
18013;SDS011;9132;47.946;10.394;2024-02-04T06:19:09;13.43;;;10.50;;
18013;SDS011;9132;47.946;10.394;2024-02-04T06:21:38;13.20;;;9.90;;
18013;SDS011;9132;47.946;10.394;2024-02-04T06:24:04;11.87;;;9.53;;
18013;SDS011;9132;47.946;10.394;2024-02-04T06:26:32;15.77;;;9.77;;
18013;SDS011;9132;47.946;10.394;2024-02-04T06:28:59;14.60;;;10.50;;
18013;SDS011;9132;47.946;10.394;2024-02-04T06:31:25;11.63;;;8.93;;
18013;SDS011;9132;47.946;10.394;2024-02-04T06:33:52;11.50;;;9.83;;
18013;SDS011;9132;47.946;10.394;2024-02-04T06:36:19;12.43;;;9.30;;
18013;SDS011;9132;47.946;10.394;2024-02-04T06:38:45;13.53;;;9.77;;
18013;SDS011;9132;47.946;10.394;2024-02-04T06:41:12;13.03;;;9.90;;
18013;SDS011;9132;47.946;10.394;2024-02-04T06:43:40;13.23;;;9.80;;
18013;SDS011;9132;47.946;10.394;2024-02-04T06:46:06;12.60;;;9.50;;
18013;SDS011;9132;47.946;10.394;2024-02-04T06:48:33;12.30;;;9.43;;
18013;SDS011;9132;47.946;10.394;2024-02-04T06:50:59;12.83;;;9.67;;
18013;SDS011;9132;47.946;10.394;2024-02-04T06:53:26;12.60;;;9.37;;
18013;SDS011;9132;47.946;10.394;2024-02-04T06:55:53;12.53;;;9.43;;
18013;SDS011;9132;47.946;10.394;2024-02-04T06:58:19;13.47;;;9.77;;
18013;SDS011;9132;47.946;10.394;2024-02-04T07:00:48;13.30;;;10.23;;
18013;SDS011;9132;47.946;10.394;2024-02-04T07:03:14;15.23;;;10.57;;
18013;SDS011;9132;47.946;10.394;2024-02-04T07:05:41;14.63;;;10.50;;
18013;SDS011;9132;47.946;10.394;2024-02-04T07:08:11;13.70;;;10.10;;
18013;SDS011;9132;47.946;10.394;2024-02-04T07:10:38;15.07;;;10.70;;
18013;SDS011;9132;47.946;10.394;2024-02-04T07:13:05;13.63;;;9.47;;
18013;SDS011;9132;47.946;10.394;2024-02-04T07:15:31;13.13;;;9.20;;
18013;SDS011;9132;47.946;10.394;2024-02-04T07:18:03;12.87;;;8.23;;
18013;SDS011;9132;47.946;10.394;2024-02-04T07:20:30;11.20;;;9.03;;
18013;SDS011;9132;47.946;10.394;2024-02-04T07:22:57;10.83;;;8.70;;
18013;SDS011;9132;47.946;10.394;2024-02-04T07:25:23;10.93;;;8.37;;
18013;SDS011;9132;47.946;10.394;2024-02-04T07:27:50;11.80;;;8.70;;
18013;SDS011;9132;47.946;10.394;2024-02-04T07:30:17;10.03;;;7.63;;
18013;SDS011;9132;47.946;10.394;2024-02-04T07:32:43;10.97;;;8.37;;
18013;SDS011;9132;47.946;10.394;2024-02-04T07:35:11;10.80;;;8.73;;
18013;SDS011;9132;47.946;10.394;2024-02-04T07:37:38;11.60;;;8.90;;
18013;SDS011;9132;47.946;10.394;2024-02-04T07:40:05;10.23;;;8.53;;
18013;SDS011;9132;47.946;10.394;2024-02-04T07:42:32;11.93;;;8.90;;
18013;SDS011;9132;47.946;10.394;2024-02-04T07:44:59;11.97;;;8.93;;
18013;SDS011;9132;47.946;10.394;2024-02-04T07:47:27;12.07;;;8.70;;
18013;SDS011;9132;47.946;10.394;2024-02-04T07:49:53;10.70;;;8.43;;
18013;SDS011;9132;47.946;10.394;2024-02-04T07:52:21;12.00;;;8.70;;
18013;SDS011;9132;47.946;10.394;2024-02-04T07:54:47;13.87;;;8.37;;
18013;SDS011;9132;47.946;10.394;2024-02-04T07:57:14;12.77;;;8.90;;
18013;SDS011;9132;47.946;10.394;2024-02-04T07:59:40;12.70;;;9.17;;
18013;SDS011;9132;47.946;10.394;2024-02-04T08:02:07;10.97;;;8.67;;
18013;SDS011;9132;47.946;10.394;2024-02-04T08:04:33;13.97;;;8.60;;
18013;SDS011;9132;47.946;10.394;2024-02-04T08:07:01;17.97;;;9.23;;
18013;SDS011;9132;47.946;10.394;2024-02-04T08:09:30;12.60;;;9.03;;
18013;SDS011;9132;47.946;10.394;2024-02-04T08:11:56;12.67;;;8.83;;
18013;SDS011;9132;47.946;10.394;2024-02-04T08:14:23;14.77;;;9.67;;
18013;SDS011;9132;47.946;10.394;2024-02-04T08:16:49;13.83;;;9.87;;
18013;SDS011;9132;47.946;10.394;2024-02-04T08:19:16;13.33;;;10.13;;
18013;SDS011;9132;47.946;10.394;2024-02-04T08:21:43;13.23;;;9.67;;
18013;SDS011;9132;47.946;10.394;2024-02-04T08:24:09;16.83;;;10.70;;
18013;SDS011;9132;47.946;10.394;2024-02-04T08:26:37;15.40;;;9.93;;
18013;SDS011;9132;47.946;10.394;2024-02-04T08:29:04;12.43;;;9.53;;
18013;SDS011;9132;47.946;10.394;2024-02-04T08:31:31;13.43;;;10.67;;
18013;SDS011;9132;47.946;10.394;2024-02-04T08:33:58;14.83;;;9.73;;
18013;SDS011;9132;47.946;10.394;2024-02-04T08:36:24;16.00;;;11.37;;
18013;SDS011;9132;47.946;10.394;2024-02-04T08:38:51;13.20;;;10.03;;
18013;SDS011;9132;47.946;10.394;2024-02-04T08:41:17;12.33;;;9.60;;
18013;SDS011;9132;47.946;10.394;2024-02-04T08:43:45;13.63;;;9.87;;
18013;SDS011;9132;47.946;10.394;2024-02-04T08:46:12;11.90;;;9.13;;
18013;SDS011;9132;47.946;10.394;2024-02-04T08:48:38;12.27;;;8.33;;
18013;SDS011;9132;47.946;10.394;2024-02-04T08:51:09;11.40;;;8.97;;
18013;SDS011;9132;47.946;10.394;2024-02-04T08:53:36;11.43;;;8.47;;
18013;SDS011;9132;47.946;10.394;2024-02-04T08:56:03;11.53;;;9.37;;
18013;SDS011;9132;47.946;10.394;2024-02-04T08:58:31;12.13;;;9.93;;
18013;SDS011;9132;47.946;10.394;2024-02-04T09:00:59;10.03;;;7.97;;
18013;SDS011;9132;47.946;10.394;2024-02-04T09:03:26;13.17;;;8.13;;
18013;SDS011;9132;47.946;10.394;2024-02-04T09:05:53;9.80;;;8.23;;
18013;SDS011;9132;47.946;10.394;2024-02-04T09:08:20;10.80;;;7.80;;
18013;SDS011;9132;47.946;10.394;2024-02-04T09:10:46;10.87;;;8.27;;
18013;SDS011;9132;47.946;10.394;2024-02-04T09:13:13;10.60;;;8.30;;
18013;SDS011;9132;47.946;10.394;2024-02-04T09:15:39;12.10;;;7.90;;
18013;SDS011;9132;47.946;10.394;2024-02-04T09:18:08;13.20;;;8.50;;
18013;SDS011;9132;47.946;10.394;2024-02-04T09:20:34;11.37;;;8.03;;
18013;SDS011;9132;47.946;10.394;2024-02-04T09:23:01;10.70;;;7.70;;
18013;SDS011;9132;47.946;10.394;2024-02-04T09:25:28;14.20;;;8.33;;
18013;SDS011;9132;47.946;10.394;2024-02-04T09:27:55;12.63;;;8.23;;
18013;SDS011;9132;47.946;10.394;2024-02-04T09:30:21;11.03;;;8.13;;
18013;SDS011;9132;47.946;10.394;2024-02-04T09:32:48;9.73;;;8.40;;
18013;SDS011;9132;47.946;10.394;2024-02-04T09:35:16;9.50;;;7.27;;
18013;SDS011;9132;47.946;10.394;2024-02-04T09:37:42;11.43;;;7.43;;
18013;SDS011;9132;47.946;10.394;2024-02-04T09:40:09;9.90;;;6.80;;
18013;SDS011;9132;47.946;10.394;2024-02-04T09:42:37;9.73;;;5.97;;
18013;SDS011;9132;47.946;10.394;2024-02-04T09:45:04;8.67;;;6.60;;
18013;SDS011;9132;47.946;10.394;2024-02-04T09:47:31;8.73;;;6.07;;
18013;SDS011;9132;47.946;10.394;2024-02-04T09:50:00;8.23;;;6.20;;
18013;SDS011;9132;47.946;10.394;2024-02-04T09:52:30;7.77;;;6.00;;
18013;SDS011;9132;47.946;10.394;2024-02-04T09:55:00;13.93;;;7.53;;
18013;SDS011;9132;47.946;10.394;2024-02-04T09:57:28;10.33;;;6.97;;
18013;SDS011;9132;47.946;10.394;2024-02-04T09:59:55;9.77;;;6.47;;
18013;SDS011;9132;47.946;10.394;2024-02-04T10:02:22;9.53;;;6.73;;
18013;SDS011;9132;47.946;10.394;2024-02-04T10:04:49;9.63;;;7.80;;
18013;SDS011;9132;47.946;10.394;2024-02-04T10:07:15;12.23;;;7.53;;
18013;SDS011;9132;47.946;10.394;2024-02-04T10:09:44;8.90;;;6.60;;
18013;SDS011;9132;47.946;10.394;2024-02-04T10:12:11;10.43;;;6.30;;
18013;SDS011;9132;47.946;10.394;2024-02-04T10:14:38;8.67;;;6.37;;
18013;SDS011;9132;47.946;10.394;2024-02-04T10:17:04;8.90;;;6.63;;
18013;SDS011;9132;47.946;10.394;2024-02-04T10:19:31;9.43;;;6.47;;
18013;SDS011;9132;47.946;10.394;2024-02-04T10:21:59;9.67;;;6.27;;
18013;SDS011;9132;47.946;10.394;2024-02-04T10:24:26;7.17;;;5.97;;
18013;SDS011;9132;47.946;10.394;2024-02-04T10:26:55;10.80;;;6.80;;
18013;SDS011;9132;47.946;10.394;2024-02-04T10:29:21;9.00;;;6.33;;
18013;SDS011;9132;47.946;10.394;2024-02-04T10:31:48;7.67;;;6.03;;
18013;SDS011;9132;47.946;10.394;2024-02-04T10:34:14;9.23;;;6.67;;
18013;SDS011;9132;47.946;10.394;2024-02-04T10:36:41;9.07;;;6.97;;
18013;SDS011;9132;47.946;10.394;2024-02-04T10:39:08;8.67;;;6.10;;
18013;SDS011;9132;47.946;10.394;2024-02-04T10:41:34;10.57;;;6.57;;
18013;SDS011;9132;47.946;10.394;2024-02-04T10:44:06;7.93;;;5.80;;
18013;SDS011;9132;47.946;10.394;2024-02-04T10:46:36;7.53;;;5.63;;
18013;SDS011;9132;47.946;10.394;2024-02-04T10:49:05;9.27;;;5.67;;
18013;SDS011;9132;47.946;10.394;2024-02-04T10:51:38;8.90;;;5.50;;
18013;SDS011;9132;47.946;10.394;2024-02-04T10:54:06;14.37;;;6.07;;
18013;SDS011;9132;47.946;10.394;2024-02-04T10:56:36;12.90;;;5.80;;
18013;SDS011;9132;47.946;10.394;2024-02-04T10:59:05;7.83;;;5.80;;
18013;SDS011;9132;47.946;10.394;2024-02-04T11:01:34;9.37;;;5.67;;
18013;SDS011;9132;47.946;10.394;2024-02-04T11:04:00;8.37;;;5.70;;
18013;SDS011;9132;47.946;10.394;2024-02-04T11:06:29;8.63;;;5.60;;
18013;SDS011;9132;47.946;10.394;2024-02-04T11:08:57;7.83;;;5.37;;
18013;SDS011;9132;47.946;10.394;2024-02-04T11:11:25;10.73;;;6.47;;
18013;SDS011;9132;47.946;10.394;2024-02-04T11:13:53;10.20;;;6.20;;
18013;SDS011;9132;47.946;10.394;2024-02-04T11:16:35;8.10;;;5.20;;
18013;SDS011;9132;47.946;10.394;2024-02-04T11:19:17;10.70;;;5.40;;
18013;SDS011;9132;47.946;10.394;2024-02-04T11:21:59;12.87;;;5.00;;
18013;SDS011;9132;47.946;10.394;2024-02-04T11:24:50;10.63;;;5.60;;
18013;SDS011;9132;47.946;10.394;2024-02-04T11:27:25;7.33;;;4.97;;
18013;SDS011;9132;47.946;10.394;2024-02-04T11:29:53;7.07;;;4.93;;
18013;SDS011;9132;47.946;10.394;2024-02-04T11:32:21;5.87;;;4.00;;
18013;SDS011;9132;47.946;10.394;2024-02-04T11:34:47;8.90;;;5.00;;
18013;SDS011;9132;47.946;10.394;2024-02-04T11:37:17;10.83;;;5.03;;
18013;SDS011;9132;47.946;10.394;2024-02-04T11:39:48;8.43;;;4.60;;
18013;SDS011;9132;47.946;10.394;2024-02-04T11:42:15;11.63;;;4.33;;
18013;SDS011;9132;47.946;10.394;2024-02-04T11:44:43;5.13;;;3.60;;
18013;SDS011;9132;47.946;10.394;2024-02-04T11:47:09;8.17;;;3.80;;
18013;SDS011;9132;47.946;10.394;2024-02-04T11:49:37;8.03;;;4.37;;
18013;SDS011;9132;47.946;10.394;2024-02-04T11:52:05;6.70;;;4.07;;
18013;SDS011;9132;47.946;10.394;2024-02-04T11:54:31;9.07;;;4.57;;
18013;SDS011;9132;47.946;10.394;2024-02-04T11:56:58;8.43;;;4.00;;
18013;SDS011;9132;47.946;10.394;2024-02-04T11:59:25;6.30;;;4.17;;
18013;SDS011;9132;47.946;10.394;2024-02-04T12:01:53;6.57;;;3.87;;
18013;SDS011;9132;47.946;10.394;2024-02-04T12:04:20;7.83;;;3.80;;
18013;SDS011;9132;47.946;10.394;2024-02-04T12:06:49;8.37;;;4.13;;
18013;SDS011;9132;47.946;10.394;2024-02-04T12:09:16;6.87;;;3.90;;
18013;SDS011;9132;47.946;10.394;2024-02-04T12:11:44;6.10;;;3.60;;
18013;SDS011;9132;47.946;10.394;2024-02-04T12:14:11;9.53;;;3.50;;
18013;SDS011;9132;47.946;10.394;2024-02-04T12:16:39;7.03;;;3.60;;
18013;SDS011;9132;47.946;10.394;2024-02-04T12:19:06;7.30;;;3.80;;
18013;SDS011;9132;47.946;10.394;2024-02-04T12:21:33;5.37;;;3.93;;
18013;SDS011;9132;47.946;10.394;2024-02-04T12:24:03;8.53;;;3.80;;
18013;SDS011;9132;47.946;10.394;2024-02-04T12:26:30;7.87;;;4.00;;
18013;SDS011;9132;47.946;10.394;2024-02-04T12:28:56;6.57;;;3.90;;
18013;SDS011;9132;47.946;10.394;2024-02-04T12:31:24;7.87;;;3.87;;
18013;SDS011;9132;47.946;10.394;2024-02-04T12:33:54;7.63;;;3.33;;
18013;SDS011;9132;47.946;10.394;2024-02-04T12:36:23;5.90;;;3.60;;
18013;SDS011;9132;47.946;10.394;2024-02-04T12:38:51;8.50;;;3.80;;
18013;SDS011;9132;47.946;10.394;2024-02-04T12:41:20;5.87;;;3.13;;
18013;SDS011;9132;47.946;10.394;2024-02-04T12:43:49;7.10;;;3.00;;
18013;SDS011;9132;47.946;10.394;2024-02-04T12:46:16;7.40;;;3.23;;
18013;SDS011;9132;47.946;10.394;2024-02-04T12:48:43;7.90;;;2.90;;
18013;SDS011;9132;47.946;10.394;2024-02-04T12:51:10;6.83;;;3.03;;
18013;SDS011;9132;47.946;10.394;2024-02-04T12:53:37;7.83;;;2.83;;
18013;SDS011;9132;47.946;10.394;2024-02-04T12:56:03;6.37;;;2.70;;
18013;SDS011;9132;47.946;10.394;2024-02-04T12:58:32;9.13;;;2.30;;
18013;SDS011;9132;47.946;10.394;2024-02-04T13:01:08;4.03;;;2.40;;
18013;SDS011;9132;47.946;10.394;2024-02-04T13:03:35;6.03;;;2.63;;
18013;SDS011;9132;47.946;10.394;2024-02-04T13:06:02;5.97;;;2.80;;
18013;SDS011;9132;47.946;10.394;2024-02-04T13:08:28;6.53;;;2.83;;
18013;SDS011;9132;47.946;10.394;2024-02-04T13:10:56;7.30;;;2.70;;
18013;SDS011;9132;47.946;10.394;2024-02-04T13:13:23;7.00;;;2.80;;
18013;SDS011;9132;47.946;10.394;2024-02-04T13:15:53;7.23;;;3.30;;
18013;SDS011;9132;47.946;10.394;2024-02-04T13:18:21;5.23;;;2.33;;
18013;SDS011;9132;47.946;10.394;2024-02-04T13:20:47;5.10;;;2.80;;
18013;SDS011;9132;47.946;10.394;2024-02-04T13:23:14;4.67;;;3.03;;
18013;SDS011;9132;47.946;10.394;2024-02-04T13:25:40;8.43;;;2.67;;
18013;SDS011;9132;47.946;10.394;2024-02-04T13:28:07;5.77;;;2.17;;
18013;SDS011;9132;47.946;10.394;2024-02-04T13:30:34;6.00;;;2.50;;
18013;SDS011;9132;47.946;10.394;2024-02-04T13:33:02;6.00;;;2.73;;
18013;SDS011;9132;47.946;10.394;2024-02-04T13:35:29;4.97;;;2.17;;
18013;SDS011;9132;47.946;10.394;2024-02-04T13:37:55;5.87;;;2.87;;
18013;SDS011;9132;47.946;10.394;2024-02-04T13:40:22;7.03;;;2.97;;
18013;SDS011;9132;47.946;10.394;2024-02-04T13:42:49;5.93;;;2.17;;
18013;SDS011;9132;47.946;10.394;2024-02-04T13:45:16;5.00;;;2.27;;
18013;SDS011;9132;47.946;10.394;2024-02-04T13:47:43;5.87;;;2.53;;
18013;SDS011;9132;47.946;10.394;2024-02-04T13:50:11;7.50;;;2.73;;
18013;SDS011;9132;47.946;10.394;2024-02-04T13:52:38;3.67;;;2.27;;
18013;SDS011;9132;47.946;10.394;2024-02-04T13:55:05;3.10;;;2.10;;
18013;SDS011;9132;47.946;10.394;2024-02-04T13:57:33;7.97;;;2.43;;
18013;SDS011;9132;47.946;10.394;2024-02-04T14:00:00;8.03;;;2.30;;
18013;SDS011;9132;47.946;10.394;2024-02-04T14:02:28;8.00;;;2.27;;
18013;SDS011;9132;47.946;10.394;2024-02-04T14:04:55;6.97;;;2.60;;
18013;SDS011;9132;47.946;10.394;2024-02-04T14:07:23;5.03;;;2.23;;
18013;SDS011;9132;47.946;10.394;2024-02-04T14:09:49;4.77;;;2.40;;
18013;SDS011;9132;47.946;10.394;2024-02-04T14:12:16;3.63;;;2.57;;
18013;SDS011;9132;47.946;10.394;2024-02-04T14:14:43;4.67;;;2.20;;
18013;SDS011;9132;47.946;10.394;2024-02-04T14:17:09;5.67;;;2.10;;
18013;SDS011;9132;47.946;10.394;2024-02-04T14:19:36;5.23;;;1.90;;
18013;SDS011;9132;47.946;10.394;2024-02-04T14:22:03;10.17;;;2.30;;
18013;SDS011;9132;47.946;10.394;2024-02-04T14:24:31;4.37;;;2.20;;
18013;SDS011;9132;47.946;10.394;2024-02-04T14:26:58;5.53;;;1.80;;
18013;SDS011;9132;47.946;10.394;2024-02-04T14:29:25;4.80;;;1.97;;
18013;SDS011;9132;47.946;10.394;2024-02-04T14:31:52;5.73;;;2.20;;
18013;SDS011;9132;47.946;10.394;2024-02-04T14:34:18;6.97;;;2.30;;
18013;SDS011;9132;47.946;10.394;2024-02-04T14:36:45;2.87;;;1.93;;
18013;SDS011;9132;47.946;10.394;2024-02-04T14:39:12;5.10;;;2.17;;
18013;SDS011;9132;47.946;10.394;2024-02-04T14:41:40;3.60;;;2.00;;
18013;SDS011;9132;47.946;10.394;2024-02-04T14:44:07;5.03;;;2.47;;